createdAt,value
2018-07-08T00:02:08.255Z,0.90
2018-07-08T00:04:37.644Z,0.80
2018-07-08T00:07:07.072Z,1.00
2018-07-08T00:09:36.436Z,0.93
2018-07-08T00:12:06.020Z,0.90
2018-07-08T00:14:35.376Z,1.00
2018-07-08T00:17:08.247Z,1.30
2018-07-08T00:19:37.759Z,0.93
2018-07-08T00:22:07.272Z,0.77
2018-07-08T00:24:36.682Z,0.70
2018-07-08T00:27:06.088Z,1.30
2018-07-08T00:29:35.424Z,1.22
2018-07-08T00:32:04.773Z,0.90
2018-07-08T00:34:37.844Z,0.83
2018-07-08T00:37:07.223Z,1.30
2018-07-08T00:39:36.584Z,1.10
2018-07-08T00:42:06.119Z,0.90
2018-07-08T00:44:35.447Z,1.00
2018-07-08T00:47:04.846Z,0.80
2018-07-08T00:49:34.171Z,1.20
2018-07-08T00:52:03.778Z,1.20
2018-07-08T00:54:33.168Z,1.30
2018-07-08T00:57:02.640Z,1.30
2018-07-08T00:59:32.065Z,1.60
2018-07-08T01:02:01.525Z,0.90
2018-07-08T01:04:34.649Z,1.10
2018-07-08T01:07:04.021Z,1.23
2018-07-08T01:09:33.396Z,1.20
2018-07-08T01:12:02.751Z,1.20
2018-07-08T01:14:32.095Z,1.30
2018-07-08T01:17:01.545Z,1.20
2018-07-08T01:19:41.280Z,1.40
2018-07-08T01:22:10.711Z,1.33
2018-07-08T01:24:40.069Z,1.00
2018-07-08T01:27:09.408Z,0.97
2018-07-08T01:29:38.812Z,1.13
2018-07-08T01:32:08.161Z,1.20
2018-07-08T01:34:37.511Z,0.90
2018-07-08T01:37:07.045Z,1.27
2018-07-08T01:39:36.531Z,1.17
2018-07-08T01:42:05.901Z,1.10
2018-07-08T01:44:35.296Z,1.23
2018-07-08T01:47:04.643Z,1.13
2018-07-08T01:49:34.175Z,1.10
2018-07-08T01:52:03.576Z,1.33
2018-07-08T01:54:32.944Z,1.10
2018-07-08T01:57:05.368Z,1.00
2018-07-08T01:59:35.005Z,1.23
2018-07-08T02:02:04.884Z,1.40
2018-07-08T02:04:34.239Z,1.00
2018-07-08T02:07:03.724Z,1.50
2018-07-08T02:09:33.040Z,1.40
2018-07-08T02:12:02.420Z,1.10
2018-07-08T02:14:32.004Z,0.83
2018-07-08T02:17:01.378Z,1.17
2018-07-08T02:19:31.300Z,1.40
2018-07-08T02:22:00.674Z,1.07
2018-07-08T02:24:30.031Z,1.30
2018-07-08T02:26:59.371Z,1.37
2018-07-08T02:29:29.104Z,0.97
2018-07-08T02:31:58.973Z,1.10
2018-07-08T02:34:28.602Z,1.30
2018-07-08T02:36:58.226Z,1.23
2018-07-08T02:39:28.410Z,1.63
2018-07-08T02:41:58.222Z,1.43
2018-07-08T02:44:27.976Z,1.47
2018-07-08T02:46:57.716Z,1.50
2018-07-08T02:49:27.340Z,1.60
2018-07-08T02:51:57.058Z,1.57
2018-07-08T02:54:26.717Z,1.60
2018-07-08T02:56:56.524Z,1.40
2018-07-08T02:59:26.230Z,2.10
2018-07-08T03:01:56.000Z,1.70
2018-07-08T03:04:25.784Z,1.80
2018-07-08T03:06:55.592Z,1.90
2018-07-08T03:09:25.307Z,1.33
2018-07-08T03:11:54.951Z,1.60
2018-07-08T03:14:24.601Z,1.70
2018-07-08T03:16:59.848Z,1.53
2018-07-08T03:19:29.266Z,2.00
2018-07-08T03:21:58.769Z,1.43
2018-07-08T03:24:28.157Z,1.57
2018-07-08T03:26:57.477Z,1.50
2018-07-08T03:29:26.805Z,1.70
2018-07-08T03:31:56.148Z,1.60
2018-07-08T03:34:25.531Z,1.63
2018-07-08T03:36:55.071Z,1.73
2018-07-08T03:39:24.426Z,1.98
2018-07-08T03:41:54.003Z,1.20
2018-07-08T03:44:23.371Z,1.77
2018-07-08T03:46:52.705Z,1.50
2018-07-08T03:49:22.032Z,1.73
2018-07-08T03:51:51.383Z,2.20
2018-07-08T03:54:29.197Z,1.60
2018-07-08T03:56:58.591Z,1.50
2018-07-08T03:59:27.917Z,2.37
2018-07-08T04:01:57.242Z,1.80
2018-07-08T04:04:26.589Z,1.27
2018-07-08T04:06:55.939Z,1.70
2018-07-08T04:09:25.301Z,1.30
2018-07-08T04:11:54.624Z,1.13
2018-07-08T04:14:23.956Z,1.57
2018-07-08T04:16:53.293Z,1.40
2018-07-08T04:19:22.651Z,1.40
2018-07-08T04:21:52.032Z,1.50
2018-07-08T04:24:21.401Z,1.73
2018-07-08T04:26:50.950Z,1.93
2018-07-08T04:29:20.305Z,1.40
2018-07-08T04:31:49.666Z,1.23
2018-07-08T04:34:19.024Z,1.37
2018-07-08T04:36:48.592Z,1.80
2018-07-08T04:39:17.995Z,1.40
2018-07-08T04:41:50.369Z,1.53
2018-07-08T04:44:19.720Z,1.50
2018-07-08T04:46:49.216Z,1.70
2018-07-08T04:49:18.582Z,2.10
2018-07-08T04:51:47.983Z,2.00
2018-07-08T04:54:17.514Z,2.53
2018-07-08T04:56:47.032Z,2.03
2018-07-08T04:59:16.496Z,1.60
2018-07-08T05:01:46.060Z,2.13
2018-07-08T05:04:15.436Z,2.70
2018-07-08T05:06:44.841Z,2.17
2018-07-08T05:09:14.275Z,2.60
2018-07-08T05:11:43.600Z,2.50
2018-07-08T05:14:12.946Z,2.23
2018-07-08T05:16:42.276Z,2.63
2018-07-08T05:19:11.684Z,2.37
2018-07-08T05:21:41.136Z,2.40
2018-07-08T05:24:10.520Z,2.57
2018-07-08T05:26:39.592Z,2.43
2018-07-08T05:29:08.957Z,3.25
2018-07-08T05:31:38.361Z,2.77
2018-07-08T05:34:07.744Z,2.60
2018-07-08T05:36:37.102Z,2.60
2018-07-08T05:39:07.589Z,2.40
2018-07-08T05:41:37.061Z,2.87
2018-07-08T05:44:06.511Z,3.20
2018-07-08T05:46:35.848Z,2.80
2018-07-08T05:49:05.386Z,3.10
2018-07-08T05:51:34.970Z,2.17
2018-07-08T05:54:04.067Z,2.90
2018-07-08T05:56:33.463Z,2.40
2018-07-08T05:59:02.821Z,2.20
2018-07-08T06:01:32.188Z,2.67
2018-07-08T06:04:01.553Z,2.47
2018-07-08T06:06:31.034Z,2.40
2018-07-08T06:09:00.397Z,2.60
2018-07-08T06:11:29.737Z,2.33
2018-07-08T06:13:59.052Z,2.03
2018-07-08T06:16:28.396Z,2.60
2018-07-08T06:19:01.182Z,3.00
2018-07-08T06:21:30.391Z,2.47
2018-07-08T06:23:59.736Z,2.10
2018-07-08T06:26:29.092Z,2.07
2018-07-08T06:28:58.432Z,2.30
2018-07-08T06:31:27.751Z,1.80
2018-07-08T06:33:57.129Z,1.50
2018-07-08T06:36:26.480Z,1.40
2018-07-08T06:38:55.828Z,1.60
2018-07-08T06:41:25.162Z,1.60
2018-07-08T06:43:54.500Z,1.70
2018-07-08T06:46:23.819Z,1.30
2018-07-08T06:48:53.199Z,1.17
2018-07-08T06:51:22.541Z,1.27
2018-07-08T06:53:51.915Z,1.23
2018-07-08T06:56:21.259Z,1.40
2018-07-08T06:58:50.661Z,1.10
2018-07-08T07:01:19.999Z,1.37
2018-07-08T07:03:49.377Z,1.40
2018-07-08T07:06:18.708Z,1.00
2018-07-08T07:08:48.092Z,0.73
2018-07-08T07:11:17.643Z,0.90
2018-07-08T07:13:47.016Z,0.80
2018-07-08T07:16:17.340Z,0.93
2018-07-08T07:18:50.262Z,0.80
2018-07-08T07:21:19.681Z,0.87
2018-07-08T07:23:49.005Z,1.07
2018-07-08T07:26:18.397Z,1.10
2018-07-08T07:28:47.748Z,0.60
2018-07-08T07:31:17.106Z,0.63
2018-07-08T07:33:53.298Z,0.90
2018-07-08T07:36:22.699Z,0.60
2018-07-08T07:38:52.051Z,0.63
2018-07-08T07:41:21.466Z,1.10
2018-07-08T07:43:50.804Z,0.50
2018-07-08T07:46:19.914Z,0.60
2018-07-08T07:48:49.240Z,0.80
2018-07-08T07:51:18.658Z,0.87
2018-07-08T07:53:47.964Z,0.57
2018-07-08T07:56:17.291Z,0.30
2018-07-08T07:58:46.627Z,0.30
2018-07-08T08:01:19.403Z,0.90
2018-07-08T08:03:48.748Z,0.70
2018-07-08T08:06:18.065Z,0.30
2018-07-08T08:08:51.268Z,0.50
2018-07-08T08:11:20.817Z,0.33
2018-07-08T08:14:03.360Z,0.50
2018-07-08T08:16:39.557Z,0.40
2018-07-08T08:19:08.945Z,0.47
2018-07-08T08:21:38.268Z,0.50
2018-07-08T08:24:07.605Z,0.33
2018-07-08T08:26:36.949Z,0.40
2018-07-08T08:29:06.324Z,0.30
2018-07-08T08:31:35.670Z,0.33
2018-07-08T08:34:48.200Z,0.40
2018-07-08T08:37:17.725Z,0.40
2018-07-08T08:39:47.248Z,0.55
2018-07-08T08:42:16.756Z,0.30
2018-07-08T08:44:46.104Z,0.40
2018-07-08T08:47:16.056Z,0.30
2018-07-08T08:49:45.788Z,0.30
2018-07-08T08:52:15.142Z,0.30
2018-07-08T08:54:44.514Z,0.47
2018-07-08T08:57:14.063Z,0.33
2018-07-08T08:59:43.418Z,0.33
2018-07-08T09:02:12.884Z,0.47
2018-07-08T09:04:43.008Z,0.40
2018-07-08T09:07:13.526Z,0.60
2018-07-08T09:09:42.883Z,0.77
2018-07-08T09:12:18.571Z,0.37
2018-07-08T09:14:47.915Z,0.77
2018-07-08T09:17:17.329Z,0.63
2018-07-08T09:19:46.652Z,0.40
2018-07-08T09:22:16.008Z,0.47
2018-07-08T09:24:45.338Z,0.57
2018-07-08T09:27:14.701Z,0.30
2018-07-08T09:29:47.443Z,0.60
2018-07-08T09:32:16.791Z,0.60
2018-07-08T09:34:46.140Z,0.50
2018-07-08T09:37:15.494Z,0.50
2018-07-08T09:39:44.809Z,0.43
2018-07-08T09:42:14.190Z,0.35
2018-07-08T09:44:43.525Z,0.80
2018-07-08T09:47:12.859Z,0.70
2018-07-08T09:49:42.186Z,0.40
2018-07-08T09:52:11.538Z,0.40
2018-07-08T09:54:40.868Z,0.30
2018-07-08T09:57:10.201Z,0.40
2018-07-08T09:59:39.559Z,0.40
2018-07-08T10:02:08.900Z,0.57
2018-07-08T10:04:38.298Z,0.53
2018-07-08T10:07:07.596Z,0.43
2018-07-08T10:09:36.952Z,0.30
2018-07-08T10:12:06.493Z,0.40
2018-07-08T10:14:35.852Z,0.60
2018-07-08T10:17:05.193Z,0.40
2018-07-08T10:19:34.622Z,0.40
2018-07-08T10:22:03.874Z,0.40
2018-07-08T10:24:39.410Z,0.40
2018-07-08T10:27:36.587Z,0.63
2018-07-08T10:30:07.615Z,0.50
2018-07-08T10:32:37.092Z,0.40
2018-07-08T10:35:19.029Z,0.40
2018-07-08T10:37:48.143Z,0.37
2018-07-08T10:40:17.521Z,0.40
2018-07-08T10:42:46.865Z,0.20
2018-07-08T10:45:16.221Z,0.63
2018-07-08T10:47:45.601Z,0.20
2018-07-08T10:50:15.352Z,0.50
2018-07-08T10:52:44.737Z,0.30
2018-07-08T10:55:13.892Z,0.40
2018-07-08T10:57:43.845Z,0.20
2018-07-08T11:00:13.351Z,0.90
2018-07-08T11:02:43.764Z,0.30
2018-07-08T11:05:13.107Z,0.30
2018-07-08T11:07:42.432Z,0.30
2018-07-08T11:10:11.793Z,0.30
2018-07-08T11:12:41.116Z,0.23
2018-07-08T11:15:10.440Z,0.33
2018-07-08T11:17:39.812Z,0.30
2018-07-08T11:20:09.192Z,0.30
2018-07-08T11:22:38.634Z,0.30
2018-07-08T11:25:07.981Z,0.37
2018-07-08T11:27:37.632Z,0.33
2018-07-08T11:30:08.068Z,0.27
2018-07-08T11:32:37.879Z,0.40
2018-07-08T11:35:08.326Z,0.40
2018-07-08T11:37:37.648Z,0.50
2018-07-08T11:40:07.429Z,0.40
2018-07-08T11:42:36.791Z,0.50
2018-07-08T11:45:06.276Z,0.50
2018-07-08T11:47:35.651Z,0.60
2018-07-08T11:50:05.039Z,0.50
2018-07-08T11:52:34.348Z,0.60
2018-07-08T11:55:16.493Z,1.00
2018-07-08T11:57:45.999Z,0.60
2018-07-08T12:00:19.900Z,0.47
2018-07-08T12:02:49.244Z,0.30
2018-07-08T12:05:18.603Z,0.30
2018-07-08T12:07:47.940Z,0.37
2018-07-08T12:10:23.609Z,0.40
2018-07-08T12:13:09.769Z,0.70
2018-07-08T12:15:42.867Z,0.40
2018-07-08T12:18:12.508Z,0.30
2018-07-08T12:20:42.115Z,0.60
2018-07-08T12:23:28.597Z,0.30
2018-07-08T12:26:05.064Z,0.50
2018-07-08T12:28:41.481Z,0.40
2018-07-08T12:31:11.115Z,0.30
2018-07-08T12:33:53.128Z,0.40
2018-07-08T12:36:22.853Z,0.43
2018-07-08T12:38:52.185Z,0.30
2018-07-08T12:41:21.521Z,0.50
2018-07-08T12:43:50.912Z,0.37
2018-07-08T12:46:20.247Z,0.77
2018-07-08T12:48:49.607Z,0.47
2018-07-08T12:51:18.951Z,0.50
2018-07-08T12:53:48.291Z,0.30
2018-07-08T12:56:19.614Z,0.70
2018-07-08T12:58:49.106Z,0.37
2018-07-08T13:01:20.684Z,0.30
2018-07-08T13:03:57.511Z,0.30
2018-07-08T13:06:26.877Z,0.20
2018-07-08T13:08:56.152Z,0.30
2018-07-08T13:11:25.504Z,0.53
2018-07-08T13:13:54.964Z,0.60
2018-07-08T13:16:25.337Z,0.30
2018-07-08T13:19:07.411Z,0.30
2018-07-08T13:21:37.005Z,0.50
2018-07-08T13:24:06.395Z,0.40
2018-07-08T13:26:52.028Z,0.87
2018-07-08T13:29:33.791Z,0.23
2018-07-08T13:32:03.266Z,0.57
2018-07-08T13:34:32.576Z,0.40
2018-07-08T13:37:02.008Z,0.77
2018-07-08T13:39:31.340Z,0.30
2018-07-08T13:42:04.009Z,0.33
2018-07-08T13:44:33.404Z,0.30
2018-07-08T13:47:02.731Z,0.43
2018-07-08T13:49:32.079Z,0.40
2018-07-08T13:52:01.452Z,0.23
2018-07-08T13:54:30.780Z,0.30
2018-07-08T13:57:00.132Z,0.70
2018-07-08T13:59:29.492Z,0.30
2018-07-08T14:01:58.830Z,0.30
2018-07-08T14:04:28.348Z,0.40
2018-07-08T14:06:57.725Z,0.37
2018-07-08T14:09:27.225Z,0.50
2018-07-08T14:12:19.064Z,0.30
2018-07-08T14:14:48.493Z,0.30
2018-07-08T14:17:17.702Z,0.40
2018-07-08T14:19:47.092Z,0.20
2018-07-08T14:22:16.399Z,0.50
2018-07-08T14:24:45.731Z,0.33
2018-07-08T14:27:15.088Z,0.40
2018-07-08T14:29:44.413Z,0.30
2018-07-08T14:32:13.733Z,0.30
2018-07-08T14:34:43.132Z,0.30
2018-07-08T14:37:12.457Z,0.37
2018-07-08T14:39:41.796Z,0.30
2018-07-08T14:42:11.239Z,0.40
2018-07-08T14:44:40.575Z,0.30
2018-07-08T14:47:09.881Z,0.50
2018-07-08T14:49:39.223Z,0.30
2018-07-08T14:52:09.116Z,0.20
2018-07-08T14:54:38.514Z,0.20
2018-07-08T14:57:07.915Z,0.67
2018-07-08T14:59:37.644Z,0.37
2018-07-08T15:02:07.022Z,0.40
2018-07-08T15:04:49.911Z,0.30
2018-07-08T15:07:19.175Z,0.30
2018-07-08T15:09:48.538Z,0.50
2018-07-08T15:12:17.847Z,0.40
2018-07-08T15:14:47.259Z,0.47
2018-07-08T15:17:16.644Z,0.37
2018-07-08T15:19:46.008Z,0.30
2018-07-08T15:22:15.340Z,0.27
2018-07-08T15:24:44.683Z,0.20
2018-07-08T15:27:14.038Z,0.37
2018-07-08T15:29:43.393Z,0.60
2018-07-08T15:32:19.096Z,0.30
2018-07-08T15:34:48.447Z,0.40
2018-07-08T15:37:17.823Z,0.43
2018-07-08T15:39:47.191Z,0.30
2018-07-08T15:42:16.524Z,0.23
2018-07-08T15:44:45.895Z,0.50
2018-07-08T15:47:15.286Z,0.40
2018-07-08T15:49:44.593Z,0.30
2018-07-08T15:52:13.892Z,0.30
2018-07-08T15:54:47.037Z,0.27
2018-07-08T15:57:16.424Z,0.30
2018-07-08T15:59:46.601Z,0.30
2018-07-08T16:02:15.967Z,0.30
2018-07-08T16:08:58.187Z,0.50
2018-07-08T16:11:27.992Z,0.50
2018-07-08T16:13:57.384Z,0.40
2018-07-08T16:16:26.740Z,0.40
2018-07-08T16:18:56.156Z,0.27
2018-07-08T16:21:25.420Z,0.40
2018-07-08T16:23:54.767Z,0.40
2018-07-08T16:26:24.092Z,0.33
2018-07-08T16:28:53.436Z,0.40
2018-07-08T16:31:22.801Z,0.30
2018-07-08T16:33:52.115Z,0.30
2018-07-08T16:36:21.460Z,0.30
2018-07-08T16:38:50.803Z,0.47
2018-07-08T16:41:20.171Z,0.40
2018-07-08T16:43:49.533Z,0.27
2018-07-08T16:46:19.860Z,0.30
2018-07-08T16:48:49.217Z,0.50
2018-07-08T16:51:18.531Z,0.30
2018-07-08T16:53:47.872Z,0.30
2018-07-08T16:56:17.289Z,0.40
2018-07-08T16:58:46.647Z,0.70
2018-07-08T17:01:16.026Z,0.30
2018-07-08T17:03:46.267Z,0.23
2018-07-08T17:06:15.619Z,0.60
2018-07-08T17:08:44.989Z,0.30
2018-07-08T17:11:14.360Z,0.50
2018-07-08T17:13:43.735Z,1.30
2018-07-08T17:16:13.098Z,0.50
2018-07-08T17:18:42.411Z,0.40
2018-07-08T17:21:11.920Z,0.30
2018-07-08T17:23:41.216Z,0.50
2018-07-08T17:26:10.540Z,0.37
2018-07-08T17:28:39.875Z,0.23
2018-07-08T17:31:09.203Z,0.30
2018-07-08T17:33:38.541Z,0.27
2018-07-08T17:36:07.860Z,0.30
2018-07-08T17:38:37.524Z,0.30
2018-07-08T17:41:07.254Z,0.27
2018-07-08T17:43:37.596Z,0.30
2018-07-08T17:46:06.996Z,0.30
2018-07-08T17:48:36.380Z,0.43
2018-07-08T17:51:06.291Z,0.20
2018-07-08T17:53:35.780Z,0.33
2018-07-08T17:56:05.197Z,0.20
2018-07-08T17:58:34.512Z,0.37
2018-07-08T18:01:04.471Z,0.30
2018-07-08T18:03:33.939Z,0.30
2018-07-08T18:06:03.266Z,0.40
2018-07-08T18:08:34.081Z,0.40
2018-07-08T18:11:03.501Z,0.30
2018-07-08T18:13:32.834Z,0.60
2018-07-08T18:16:02.231Z,0.40
2018-07-08T18:18:31.540Z,0.50
2018-07-08T18:21:00.876Z,0.40
2018-07-08T18:23:30.204Z,0.43
2018-07-08T18:25:59.529Z,0.50
2018-07-08T18:28:28.896Z,0.30
2018-07-08T18:30:58.216Z,0.50
2018-07-08T18:33:27.608Z,0.30
2018-07-08T18:35:56.638Z,0.30
2018-07-08T18:38:26.038Z,0.30
2018-07-08T18:40:55.396Z,0.30
2018-07-08T18:43:24.879Z,0.50
2018-07-08T18:45:54.611Z,0.50
2018-07-08T18:48:24.701Z,0.40
2018-07-08T18:50:54.077Z,0.30
2018-07-08T18:53:23.436Z,0.50
2018-07-08T18:55:52.806Z,0.40
2018-07-08T18:58:22.315Z,0.30
2018-07-08T19:00:51.632Z,0.40
2018-07-08T19:03:21.003Z,0.60
2018-07-08T19:05:50.352Z,0.40
2018-07-08T19:08:19.814Z,0.57
2018-07-08T19:10:49.164Z,0.30
2018-07-08T19:13:19.245Z,0.53
2018-07-08T19:15:48.676Z,0.30
2018-07-08T19:18:18.026Z,0.40
2018-07-08T19:20:47.454Z,0.70
2018-07-08T19:23:16.784Z,0.40
2018-07-08T19:25:46.283Z,0.57
2018-07-08T19:28:15.638Z,0.30
2018-07-08T19:30:44.957Z,0.40
2018-07-08T19:33:14.331Z,0.40
2018-07-08T19:35:43.696Z,0.40
2018-07-08T19:38:13.013Z,0.50
2018-07-08T19:40:42.369Z,0.37
2018-07-08T19:43:12.403Z,0.30
2018-07-08T19:45:41.997Z,0.50
2018-07-08T19:48:11.500Z,0.40
2018-07-08T19:50:41.227Z,0.43
2018-07-08T19:53:10.948Z,0.60
2018-07-08T19:55:40.661Z,0.60
2018-07-08T19:58:10.277Z,0.40
2018-07-08T20:00:40.822Z,0.57
2018-07-08T20:03:10.478Z,0.50
2018-07-08T20:05:40.078Z,0.57
2018-07-08T20:08:10.712Z,0.50
2018-07-08T20:10:41.156Z,0.40
2018-07-08T20:13:11.143Z,0.40
2018-07-08T20:15:42.904Z,0.53
2018-07-08T20:18:12.888Z,0.50
2018-07-08T20:20:42.468Z,0.30
2018-07-08T20:23:11.852Z,0.50
2018-07-08T20:25:41.750Z,0.60
2018-07-08T20:28:11.252Z,0.80
2018-07-08T20:30:40.665Z,0.50
2018-07-08T20:33:10.458Z,0.40
2018-07-08T20:35:40.076Z,0.40
2018-07-08T20:38:10.467Z,0.50
2018-07-08T20:40:39.913Z,0.53
2018-07-08T20:43:09.391Z,0.70
2018-07-08T20:45:38.907Z,0.53
2018-07-08T20:48:08.321Z,0.43
2018-07-08T20:50:37.691Z,0.65
2018-07-08T20:53:06.924Z,0.67
2018-07-08T20:55:36.393Z,1.07
2018-07-08T20:58:05.771Z,0.50
2018-07-08T21:00:35.184Z,0.50
2018-07-08T21:03:04.532Z,0.40
2018-07-08T21:05:33.911Z,0.40
2018-07-08T21:08:03.246Z,0.60
2018-07-08T21:10:32.749Z,0.60
2018-07-08T21:13:02.110Z,0.60
2018-07-08T21:15:31.672Z,0.47
2018-07-08T21:18:01.020Z,0.70
2018-07-08T21:20:30.348Z,0.50
2018-07-08T21:23:00.523Z,0.70
2018-07-08T21:25:31.008Z,0.70
2018-07-08T21:28:01.097Z,0.50
2018-07-08T21:30:31.456Z,0.42
2018-07-08T21:33:00.856Z,0.40
2018-07-08T21:39:00.355Z,0.57
2018-07-08T21:41:29.700Z,0.70
2018-07-08T21:43:59.020Z,0.50
2018-07-08T21:46:28.349Z,0.50
2018-07-08T21:48:57.706Z,0.60
2018-07-08T21:51:27.052Z,0.50
2018-07-08T21:53:56.452Z,0.90
2018-07-08T21:56:25.759Z,0.60
2018-07-08T21:58:55.109Z,0.60
2018-07-08T22:01:25.304Z,0.50
2018-07-08T22:03:54.656Z,0.60
2018-07-08T22:06:24.021Z,0.50
2018-07-08T22:08:53.343Z,0.80
2018-07-08T22:11:22.668Z,0.50
2018-07-08T22:13:51.987Z,0.80
2018-07-08T22:16:21.609Z,0.80
2018-07-08T22:18:50.679Z,0.60
2018-07-08T22:21:19.997Z,0.90
2018-07-08T22:23:49.374Z,0.70
2018-07-08T22:26:18.689Z,0.88
2018-07-08T22:28:48.024Z,0.70
2018-07-08T22:31:17.352Z,0.50
2018-07-08T22:33:46.662Z,0.90
2018-07-08T22:36:15.967Z,0.90
2018-07-08T22:38:45.308Z,0.70
2018-07-08T22:41:14.629Z,0.53
2018-07-08T22:43:43.955Z,1.00
2018-07-08T22:46:13.325Z,0.63
2018-07-08T22:48:42.640Z,0.90
2018-07-08T22:51:11.976Z,1.00
2018-07-08T22:53:41.317Z,0.90
2018-07-08T22:56:10.652Z,0.90
2018-07-08T22:58:39.963Z,0.63
2018-07-08T23:01:26.525Z,0.50
2018-07-08T23:03:58.390Z,0.70
2018-07-08T23:06:27.734Z,0.90
2018-07-08T23:08:57.321Z,0.80
2018-07-08T23:11:27.339Z,0.63
2018-07-08T23:13:57.644Z,0.90
2018-07-08T23:16:27.595Z,0.90
2018-07-08T23:18:56.941Z,0.87
2018-07-08T23:21:26.279Z,0.80
2018-07-08T23:23:55.688Z,0.73
2018-07-08T23:26:25.012Z,0.93
2018-07-08T23:28:54.321Z,1.00
2018-07-08T23:31:23.735Z,0.70
2018-07-08T23:33:53.137Z,1.03
2018-07-08T23:36:22.464Z,0.83
2018-07-08T23:38:51.836Z,0.90
2018-07-08T23:41:21.173Z,0.70
2018-07-08T23:43:50.235Z,1.03
2018-07-08T23:46:19.568Z,1.23
2018-07-08T23:48:48.900Z,1.10
2018-07-08T23:51:18.226Z,1.43
2018-07-08T23:53:47.572Z,1.20
2018-07-08T23:56:16.884Z,0.83
2018-07-08T23:58:46.208Z,0.80
